This is the latest recevied weather packets stored in our database for station/object DH3PAE-6. If no packets are shown the sender has not sent any weather packets the latest 10 day(s).
| Time | Temp. | Humidity | Pressure | Rain* | Wind** | Luminosity | Snow |
|---|---|---|---|---|---|---|---|
| 1777458137 | 15.56° C | 36% | 1023.5 hPa | 0 mm | - | 654 W/m² | - |
| 1777453336 | 13.33° C | 41% | 1023.6 hPa | 0 mm | - | 705 W/m² | - |
| 1777452736 | 13.89° C | 44% | 1023.6 hPa | 0 mm | - | 684 W/m² | - |
| 1777450339 | 12.22° C | 43% | 1023.5 hPa | 0 mm | - | 595 W/m² | - |
| 1777447336 | 10.56° C | 45% | 1023.1 hPa | 0 mm | - | 316 W/m² | - |
| 1777445536 | 10° C | 44% | 1023 hPa | 0 mm | - | 387 W/m² | - |
| 1777441936 | 7.22° C | 58% | 1022.5 hPa | 0 mm | - | 117 W/m² | - |
| 1777438336 | 1.11° C | 82% | 1021.9 hPa | 0 mm | - | 16 W/m² | - |
| 1777436536 | 0.56° C | 83% | 1021.9 hPa | 0 mm | - | 5 W/m² | - |
| 1777428136 | 2.78° C | 74% | 1021.5 hPa | 0 mm | - | 0 W/m² | - |
| 1777426956 | 3.89° C | 70% | 1021.7 hPa | 0 mm | - | 0 W/m² | - |
| 1777425136 | 4.44° C | 69% | 1021.4 hPa | 0 mm | - | 0 W/m² | - |
| 1777423936 | 5.56° C | 64% | 1021.4 hPa | 0 mm | - | 0 W/m² | - |
| 1777422176 | 8.33° C | 51% | 1021.8 hPa | 0 mm | - | 0 W/m² | - |
| 1777414938 | 10.56° C | 52% | 1021.6 hPa | 0 mm | - | 0 W/m² | - |
| 1777408937 | 12.22° C | 50% | 1020.8 hPa | 0 mm | - | 0 W/m² | - |
| 1777408361 | 12.22° C | 49% | 1020.8 hPa | 0 mm | - | 0 W/m² | - |
| 1777406537 | 12.22° C | 49% | 1020.5 hPa | 0 mm | - | 0 W/m² | - |
| 1777405960 | 12.22° C | 48% | 1020.4 hPa | 0 mm | - | 0 W/m² | - |
| 1777400540 | 15° C | 42% | 1018.9 hPa | 0 mm | - | 11 W/m² | - |
| 1777397537 | 16.67° C | 38% | 1018.1 hPa | 0 mm | - | 125 W/m² | - |
| 1777396357 | 17.22° C | 38% | 1018 hPa | 0 mm | - | 181 W/m² | - |
| 1777389737 | 18.33° C | 37% | 1017.7 hPa | 0 mm | - | 490 W/m² | - |
| 1777384937 | 18.89° C | 37% | 1018.2 hPa | 0 mm | - | 680 W/m² | - |
| 1777382537 | 19.44° C | 42% | 1018.4 hPa | 0 mm | - | 750 W/m² | - |
* Rain latest hour (hover to see other rain measurements)
** Current wind speed in m/s (hover to see current wind gust speed)